sensor_id;sensor_type;location;lat;lon;timestamp;P1;durP1;ratioP1;P2;durP2;ratioP2
75156;SDS011;63736;50.076;8.198;2023-01-15T01:11:12;285.42;;;91.07;;
75156;SDS011;63736;50.076;8.198;2023-01-15T01:13:39;325.98;;;100.22;;
75156;SDS011;63736;50.076;8.198;2023-01-15T01:16:47;325.20;;;99.90;;
75156;SDS011;63736;50.076;8.198;2023-01-15T01:18:59;310.90;;;100.25;;
75156;SDS011;63736;50.076;8.198;2023-01-15T01:21:27;296.83;;;95.57;;
75156;SDS011;63736;50.076;8.198;2023-01-15T01:23:54;275.08;;;89.20;;
75156;SDS011;63736;50.076;8.198;2023-01-15T01:26:19;264.97;;;87.40;;
75156;SDS011;63736;50.076;8.198;2023-01-15T01:28:48;236.10;;;79.70;;
75156;SDS011;63736;50.076;8.198;2023-01-15T01:31:15;231.13;;;78.73;;
75156;SDS011;63736;50.076;8.198;2023-01-15T01:33:40;197.40;;;70.07;;
75156;SDS011;63736;50.076;8.198;2023-01-15T01:36:06;199.87;;;74.63;;
75156;SDS011;63736;50.076;8.198;2023-01-15T01:38:31;203.57;;;73.13;;
75156;SDS011;63736;50.076;8.198;2023-01-15T01:40:57;188.67;;;70.37;;
75156;SDS011;63736;50.076;8.198;2023-01-15T01:43:24;197.45;;;71.18;;
75156;SDS011;63736;50.076;8.198;2023-01-15T01:45:50;199.45;;;71.80;;
75156;SDS011;63736;50.076;8.198;2023-01-15T01:48:20;215.97;;;73.37;;
75156;SDS011;63736;50.076;8.198;2023-01-15T01:50:50;218.15;;;76.05;;
75156;SDS011;63736;50.076;8.198;2023-01-15T01:53:19;191.88;;;71.50;;
75156;SDS011;63736;50.076;8.198;2023-01-15T01:55:48;200.60;;;71.22;;
75156;SDS011;63736;50.076;8.198;2023-01-15T01:58:14;188.00;;;66.73;;
75156;SDS011;63736;50.076;8.198;2023-01-15T02:00:43;174.48;;;63.38;;
75156;SDS011;63736;50.076;8.198;2023-01-15T02:03:10;195.32;;;68.72;;
75156;SDS011;63736;50.076;8.198;2023-01-15T02:05:37;184.15;;;65.38;;
75156;SDS011;63736;50.076;8.198;2023-01-15T02:08:05;173.13;;;63.83;;
75156;SDS011;63736;50.076;8.198;2023-01-15T02:10:31;163.83;;;61.73;;
75156;SDS011;63736;50.076;8.198;2023-01-15T02:12:59;160.32;;;60.42;;
75156;SDS011;63736;50.076;8.198;2023-01-15T02:21:35;167.35;;;62.33;;
75156;SDS011;63736;50.076;8.198;2023-01-15T02:24:22;155.30;;;59.40;;
75156;SDS011;63736;50.076;8.198;2023-01-15T02:27:06;146.55;;;57.72;;
75156;SDS011;63736;50.076;8.198;2023-01-15T02:29:46;146.65;;;58.63;;
75156;SDS011;63736;50.076;8.198;2023-01-15T02:32:36;142.98;;;57.15;;
75156;SDS011;63736;50.076;8.198;2023-01-15T02:35:37;144.07;;;58.13;;
75156;SDS011;63736;50.076;8.198;2023-01-15T02:37:58;144.43;;;57.03;;
75156;SDS011;63736;50.076;8.198;2023-01-15T02:40:27;140.15;;;56.20;;
75156;SDS011;63736;50.076;8.198;2023-01-15T02:42:55;132.32;;;55.03;;
75156;SDS011;63736;50.076;8.198;2023-01-15T02:45:24;132.90;;;54.78;;
75156;SDS011;63736;50.076;8.198;2023-01-15T02:47:53;134.48;;;56.00;;
75156;SDS011;63736;50.076;8.198;2023-01-15T02:50:24;135.23;;;55.97;;
75156;SDS011;63736;50.076;8.198;2023-01-15T02:52:53;140.30;;;56.63;;
75156;SDS011;63736;50.076;8.198;2023-01-15T02:55:25;128.55;;;54.90;;
75156;SDS011;63736;50.076;8.198;2023-01-15T02:57:54;123.65;;;53.30;;
75156;SDS011;63736;50.076;8.198;2023-01-15T03:00:23;115.88;;;52.13;;
75156;SDS011;63736;50.076;8.198;2023-01-15T03:02:54;112.27;;;51.43;;
75156;SDS011;63736;50.076;8.198;2023-01-15T03:05:35;114.90;;;51.65;;
75156;SDS011;63736;50.076;8.198;2023-01-15T03:08:05;118.32;;;52.78;;
75156;SDS011;63736;50.076;8.198;2023-01-15T03:10:44;176.63;;;63.60;;
75156;SDS011;63736;50.076;8.198;2023-01-15T03:13:15;168.23;;;62.20;;
75156;SDS011;63736;50.076;8.198;2023-01-15T03:15:52;159.33;;;60.70;;
75156;SDS011;63736;50.076;8.198;2023-01-15T03:18:44;164.25;;;61.92;;
75156;SDS011;63736;50.076;8.198;2023-01-15T03:21:29;195.65;;;68.78;;
75156;SDS011;63736;50.076;8.198;2023-01-15T03:24:04;258.65;;;83.30;;
75156;SDS011;63736;50.076;8.198;2023-01-15T03:26:32;188.05;;;66.45;;
75156;SDS011;63736;50.076;8.198;2023-01-15T03:28:57;176.93;;;64.07;;
75156;SDS011;63736;50.076;8.198;2023-01-15T03:31:24;167.82;;;62.55;;
75156;SDS011;63736;50.076;8.198;2023-01-15T03:33:50;161.83;;;60.60;;
75156;SDS011;63736;50.076;8.198;2023-01-15T03:36:15;159.10;;;60.70;;
75156;SDS011;63736;50.076;8.198;2023-01-15T03:38:41;154.07;;;58.93;;
75156;SDS011;63736;50.076;8.198;2023-01-15T03:44:19;212.37;;;71.10;;
75156;SDS011;63736;50.076;8.198;2023-01-15T03:52:29;300.88;;;92.43;;
75156;SDS011;63736;50.076;8.198;2023-01-15T03:57:37;259.73;;;83.37;;
75156;SDS011;63736;50.076;8.198;2023-01-15T04:00:08;261.70;;;83.47;;
75156;SDS011;63736;50.076;8.198;2023-01-15T04:02:41;232.20;;;76.80;;
75156;SDS011;63736;50.076;8.198;2023-01-15T04:05:09;228.98;;;74.78;;
75156;SDS011;63736;50.076;8.198;2023-01-15T04:07:35;261.87;;;83.10;;
75156;SDS011;63736;50.076;8.198;2023-01-15T04:10:00;270.45;;;84.93;;
75156;SDS011;63736;50.076;8.198;2023-01-15T04:12:26;286.40;;;89.47;;
75156;SDS011;63736;50.076;8.198;2023-01-15T04:14:52;260.65;;;83.28;;
75156;SDS011;63736;50.076;8.198;2023-01-15T04:17:17;239.10;;;77.70;;
75156;SDS011;63736;50.076;8.198;2023-01-15T04:19:42;234.90;;;76.70;;
75156;SDS011;63736;50.076;8.198;2023-01-15T04:22:09;237.47;;;77.63;;
75156;SDS011;63736;50.076;8.198;2023-01-15T04:24:35;242.13;;;78.30;;
75156;SDS011;63736;50.076;8.198;2023-01-15T04:27:00;254.90;;;81.37;;
75156;SDS011;63736;50.076;8.198;2023-01-15T04:29:26;261.33;;;83.40;;
75156;SDS011;63736;50.076;8.198;2023-01-15T04:31:51;259.20;;;82.23;;
75156;SDS011;63736;50.076;8.198;2023-01-15T04:34:21;263.33;;;83.87;;
75156;SDS011;63736;50.076;8.198;2023-01-15T04:36:46;264.40;;;83.87;;
75156;SDS011;63736;50.076;8.198;2023-01-15T04:39:12;264.88;;;84.25;;
75156;SDS011;63736;50.076;8.198;2023-01-15T04:41:38;259.07;;;83.17;;
75156;SDS011;63736;50.076;8.198;2023-01-15T04:44:21;258.80;;;82.93;;
75156;SDS011;63736;50.076;8.198;2023-01-15T04:46:52;259.17;;;82.85;;
75156;SDS011;63736;50.076;8.198;2023-01-15T04:49:17;260.20;;;82.97;;
75156;SDS011;63736;50.076;8.198;2023-01-15T04:51:43;261.27;;;83.40;;
75156;SDS011;63736;50.076;8.198;2023-01-15T04:54:09;261.30;;;83.37;;
75156;SDS011;63736;50.076;8.198;2023-01-15T04:56:37;260.60;;;83.43;;
75156;SDS011;63736;50.076;8.198;2023-01-15T04:59:04;260.00;;;83.93;;
75156;SDS011;63736;50.076;8.198;2023-01-15T05:01:30;261.23;;;84.00;;
75156;SDS011;63736;50.076;8.198;2023-01-15T05:04:04;258.38;;;82.68;;
75156;SDS011;63736;50.076;8.198;2023-01-15T05:06:29;254.70;;;82.60;;
75156;SDS011;63736;50.076;8.198;2023-01-15T05:08:55;253.23;;;81.15;;
75156;SDS011;63736;50.076;8.198;2023-01-15T05:11:21;254.85;;;82.30;;
75156;SDS011;63736;50.076;8.198;2023-01-15T05:13:46;260.27;;;83.40;;
75156;SDS011;63736;50.076;8.198;2023-01-15T05:16:16;260.50;;;83.50;;
75156;SDS011;63736;50.076;8.198;2023-01-15T05:18:43;263.80;;;84.18;;
75156;SDS011;63736;50.076;8.198;2023-01-15T05:21:13;264.77;;;84.33;;
75156;SDS011;63736;50.076;8.198;2023-01-15T05:23:46;270.13;;;86.60;;
75156;SDS011;63736;50.076;8.198;2023-01-15T05:26:12;265.50;;;84.90;;
75156;SDS011;63736;50.076;8.198;2023-01-15T05:28:38;265.73;;;84.73;;
75156;SDS011;63736;50.076;8.198;2023-01-15T05:31:07;266.15;;;85.10;;
75156;SDS011;63736;50.076;8.198;2023-01-15T05:33:33;267.70;;;85.28;;
75156;SDS011;63736;50.076;8.198;2023-01-15T05:36:03;268.63;;;85.65;;
75156;SDS011;63736;50.076;8.198;2023-01-15T05:38:30;265.63;;;84.73;;
75156;SDS011;63736;50.076;8.198;2023-01-15T05:40:55;265.85;;;84.88;;
75156;SDS011;63736;50.076;8.198;2023-01-15T05:43:20;265.73;;;84.80;;
75156;SDS011;63736;50.076;8.198;2023-01-15T05:45:45;265.73;;;84.93;;
75156;SDS011;63736;50.076;8.198;2023-01-15T05:48:11;265.43;;;85.40;;
75156;SDS011;63736;50.076;8.198;2023-01-15T05:50:36;264.93;;;84.27;;
75156;SDS011;63736;50.076;8.198;2023-01-15T05:53:01;263.40;;;84.27;;
75156;SDS011;63736;50.076;8.198;2023-01-15T05:55:27;265.90;;;84.57;;
75156;SDS011;63736;50.076;8.198;2023-01-15T05:57:52;266.07;;;85.60;;
75156;SDS011;63736;50.076;8.198;2023-01-15T06:00:17;267.60;;;84.93;;
75156;SDS011;63736;50.076;8.198;2023-01-15T06:02:43;264.77;;;84.68;;
75156;SDS011;63736;50.076;8.198;2023-01-15T06:05:12;264.90;;;85.38;;
75156;SDS011;63736;50.076;8.198;2023-01-15T06:07:38;264.33;;;85.17;;
75156;SDS011;63736;50.076;8.198;2023-01-15T06:10:03;263.60;;;84.93;;
75156;SDS011;63736;50.076;8.198;2023-01-15T06:12:29;261.50;;;83.72;;
75156;SDS011;63736;50.076;8.198;2023-01-15T06:14:56;262.67;;;85.00;;
75156;SDS011;63736;50.076;8.198;2023-01-15T06:17:21;261.10;;;84.17;;
75156;SDS011;63736;50.076;8.198;2023-01-15T06:19:47;259.23;;;83.67;;
75156;SDS011;63736;50.076;8.198;2023-01-15T06:22:12;258.07;;;83.10;;
75156;SDS011;63736;50.076;8.198;2023-01-15T06:24:37;260.17;;;84.13;;
75156;SDS011;63736;50.076;8.198;2023-01-15T06:27:03;256.43;;;83.30;;
75156;SDS011;63736;50.076;8.198;2023-01-15T06:29:28;256.77;;;82.97;;
75156;SDS011;63736;50.076;8.198;2023-01-15T06:31:53;257.27;;;83.33;;
75156;SDS011;63736;50.076;8.198;2023-01-15T06:34:18;254.93;;;82.43;;
75156;SDS011;63736;50.076;8.198;2023-01-15T06:36:44;256.23;;;83.53;;
75156;SDS011;63736;50.076;8.198;2023-01-15T06:39:09;258.23;;;85.60;;
75156;SDS011;63736;50.076;8.198;2023-01-15T06:41:35;255.43;;;85.03;;
75156;SDS011;63736;50.076;8.198;2023-01-15T06:44:29;251.93;;;83.30;;
75156;SDS011;63736;50.076;8.198;2023-01-15T06:47:14;251.48;;;84.75;;
75156;SDS011;63736;50.076;8.198;2023-01-15T06:49:48;245.98;;;81.88;;
75156;SDS011;63736;50.076;8.198;2023-01-15T06:52:15;242.90;;;80.80;;
75156;SDS011;63736;50.076;8.198;2023-01-15T06:54:40;246.30;;;83.00;;
75156;SDS011;63736;50.076;8.198;2023-01-15T06:57:05;245.70;;;83.23;;
75156;SDS011;63736;50.076;8.198;2023-01-15T06:59:30;248.10;;;85.33;;
75156;SDS011;63736;50.076;8.198;2023-01-15T07:01:56;241.70;;;81.40;;
75156;SDS011;63736;50.076;8.198;2023-01-15T07:04:21;234.20;;;78.97;;
75156;SDS011;63736;50.076;8.198;2023-01-15T07:06:47;239.63;;;81.93;;
75156;SDS011;63736;50.076;8.198;2023-01-15T07:09:12;229.80;;;77.43;;
75156;SDS011;63736;50.076;8.198;2023-01-15T07:11:37;226.97;;;76.10;;
75156;SDS011;63736;50.076;8.198;2023-01-15T07:14:13;228.10;;;77.45;;
75156;SDS011;63736;50.076;8.198;2023-01-15T07:16:41;229.95;;;78.63;;
75156;SDS011;63736;50.076;8.198;2023-01-15T07:19:07;226.23;;;76.33;;
75156;SDS011;63736;50.076;8.198;2023-01-15T07:21:33;227.43;;;79.40;;
75156;SDS011;63736;50.076;8.198;2023-01-15T07:23:58;224.10;;;75.73;;
75156;SDS011;63736;50.076;8.198;2023-01-15T07:26:24;226.07;;;76.77;;
75156;SDS011;63736;50.076;8.198;2023-01-15T07:28:49;223.30;;;75.95;;
75156;SDS011;63736;50.076;8.198;2023-01-15T07:31:15;221.07;;;75.47;;
75156;SDS011;63736;50.076;8.198;2023-01-15T07:33:40;220.73;;;75.23;;
75156;SDS011;63736;50.076;8.198;2023-01-15T07:36:05;220.63;;;75.00;;
75156;SDS011;63736;50.076;8.198;2023-01-15T07:38:31;221.88;;;76.43;;
75156;SDS011;63736;50.076;8.198;2023-01-15T07:40:56;222.00;;;75.73;;
75156;SDS011;63736;50.076;8.198;2023-01-15T07:43:41;221.53;;;74.47;;
75156;SDS011;63736;50.076;8.198;2023-01-15T07:46:26;221.65;;;75.50;;
75156;SDS011;63736;50.076;8.198;2023-01-15T07:49:10;218.52;;;74.65;;
75156;SDS011;63736;50.076;8.198;2023-01-15T07:51:54;218.82;;;74.70;;
75156;SDS011;63736;50.076;8.198;2023-01-15T07:54:20;216.03;;;73.47;;
75156;SDS011;63736;50.076;8.198;2023-01-15T07:56:45;214.67;;;73.10;;
75156;SDS011;63736;50.076;8.198;2023-01-15T07:59:10;213.33;;;72.63;;
75156;SDS011;63736;50.076;8.198;2023-01-15T08:01:36;216.52;;;75.05;;
75156;SDS011;63736;50.076;8.198;2023-01-15T08:04:01;215.10;;;74.03;;
75156;SDS011;63736;50.076;8.198;2023-01-15T08:06:26;215.33;;;74.93;;
75156;SDS011;63736;50.076;8.198;2023-01-15T08:08:52;220.80;;;78.20;;
75156;SDS011;63736;50.076;8.198;2023-01-15T08:11:17;218.27;;;76.50;;
75156;SDS011;63736;50.076;8.198;2023-01-15T08:14:01;215.13;;;73.28;;
75156;SDS011;63736;50.076;8.198;2023-01-15T08:16:45;214.57;;;73.55;;
75156;SDS011;63736;50.076;8.198;2023-01-15T08:19:10;213.20;;;72.30;;
75156;SDS011;63736;50.076;8.198;2023-01-15T08:21:35;212.07;;;72.80;;
75156;SDS011;63736;50.076;8.198;2023-01-15T08:24:01;212.57;;;72.90;;
75156;SDS011;63736;50.076;8.198;2023-01-15T08:26:26;212.43;;;73.17;;
75156;SDS011;63736;50.076;8.198;2023-01-15T08:28:51;210.97;;;72.83;;
75156;SDS011;63736;50.076;8.198;2023-01-15T08:31:17;212.13;;;73.17;;
75156;SDS011;63736;50.076;8.198;2023-01-15T08:33:42;213.27;;;73.50;;
75156;SDS011;63736;50.076;8.198;2023-01-15T08:36:07;210.80;;;72.13;;
75156;SDS011;63736;50.076;8.198;2023-01-15T08:38:33;210.63;;;72.60;;
75156;SDS011;63736;50.076;8.198;2023-01-15T08:40:58;209.93;;;71.93;;
75156;SDS011;63736;50.076;8.198;2023-01-15T08:43:27;211.73;;;73.20;;
75156;SDS011;63736;50.076;8.198;2023-01-15T08:45:55;212.23;;;73.07;;
75156;SDS011;63736;50.076;8.198;2023-01-15T08:48:24;213.05;;;72.68;;
75156;SDS011;63736;50.076;8.198;2023-01-15T08:50:50;213.15;;;73.13;;
75156;SDS011;63736;50.076;8.198;2023-01-15T08:53:17;210.37;;;72.37;;
75156;SDS011;63736;50.076;8.198;2023-01-15T08:55:43;214.38;;;73.72;;
75156;SDS011;63736;50.076;8.198;2023-01-15T08:58:09;212.57;;;72.50;;
75156;SDS011;63736;50.076;8.198;2023-01-15T09:00:34;213.93;;;73.53;;
75156;SDS011;63736;50.076;8.198;2023-01-15T09:02:59;213.13;;;72.67;;
75156;SDS011;63736;50.076;8.198;2023-01-15T09:05:25;211.70;;;72.87;;
75156;SDS011;63736;50.076;8.198;2023-01-15T09:07:52;211.32;;;72.10;;
75156;SDS011;63736;50.076;8.198;2023-01-15T09:10:17;210.90;;;71.67;;
75156;SDS011;63736;50.076;8.198;2023-01-15T09:12:43;208.37;;;71.33;;
75156;SDS011;63736;50.076;8.198;2023-01-15T09:15:08;207.43;;;70.85;;
75156;SDS011;63736;50.076;8.198;2023-01-15T09:17:34;208.23;;;71.70;;
75156;SDS011;63736;50.076;8.198;2023-01-15T09:20:04;207.57;;;71.78;;
75156;SDS011;63736;50.076;8.198;2023-01-15T09:22:33;205.10;;;70.60;;
75156;SDS011;63736;50.076;8.198;2023-01-15T09:24:58;204.63;;;70.43;;
75156;SDS011;63736;50.076;8.198;2023-01-15T09:27:24;204.90;;;71.17;;
75156;SDS011;63736;50.076;8.198;2023-01-15T09:29:50;202.85;;;70.72;;
75156;SDS011;63736;50.076;8.198;2023-01-15T09:32:15;201.87;;;69.60;;
75156;SDS011;63736;50.076;8.198;2023-01-15T09:34:41;202.93;;;69.83;;
75156;SDS011;63736;50.076;8.198;2023-01-15T09:37:06;204.17;;;70.10;;
75156;SDS011;63736;50.076;8.198;2023-01-15T09:39:31;205.33;;;70.33;;
75156;SDS011;63736;50.076;8.198;2023-01-15T09:42:08;206.70;;;71.40;;
75156;SDS011;63736;50.076;8.198;2023-01-15T09:50:19;209.87;;;71.27;;
75156;SDS011;63736;50.076;8.198;2023-01-15T09:56:15;212.48;;;72.60;;
75156;SDS011;63736;50.076;8.198;2023-01-15T09:58:47;211.10;;;72.13;;
75156;SDS011;63736;50.076;8.198;2023-01-15T10:01:15;208.48;;;72.13;;
75156;SDS011;63736;50.076;8.198;2023-01-15T10:03:46;207.60;;;70.80;;
75156;SDS011;63736;50.076;8.198;2023-01-15T10:06:18;206.65;;;70.85;;
75156;SDS011;63736;50.076;8.198;2023-01-15T10:08:48;204.52;;;70.72;;
75156;SDS011;63736;50.076;8.198;2023-01-15T10:13:44;205.53;;;70.33;;
75156;SDS011;63736;50.076;8.198;2023-01-15T10:16:12;231.18;;;76.50;;
75156;SDS011;63736;50.076;8.198;2023-01-15T10:18:43;214.90;;;72.93;;
75156;SDS011;63736;50.076;8.198;2023-01-15T10:21:13;229.40;;;75.40;;
75156;SDS011;63736;50.076;8.198;2023-01-15T10:32:00;275.73;;;87.70;;
75156;SDS011;63736;50.076;8.198;2023-01-15T10:37:46;265.25;;;84.40;;
75156;SDS011;63736;50.076;8.198;2023-01-15T10:40:21;267.95;;;85.60;;
75156;SDS011;63736;50.076;8.198;2023-01-15T10:46:12;296.67;;;91.20;;
75156;SDS011;63736;50.076;8.198;2023-01-15T10:48:45;419.17;;;128.63;;
75156;SDS011;63736;50.076;8.198;2023-01-15T10:51:44;326.65;;;101.80;;
75156;SDS011;63736;50.076;8.198;2023-01-15T10:54:16;313.33;;;98.57;;
75156;SDS011;63736;50.076;8.198;2023-01-15T10:56:52;299.23;;;96.95;;
75156;SDS011;63736;50.076;8.198;2023-01-15T10:59:39;295.03;;;96.33;;
75156;SDS011;63736;50.076;8.198;2023-01-15T11:04:52;288.85;;;94.30;;
75156;SDS011;63736;50.076;8.198;2023-01-15T11:07:18;289.30;;;99.50;;
75156;SDS011;63736;50.076;8.198;2023-01-15T11:09:46;276.77;;;90.90;;
75156;SDS011;63736;50.076;8.198;2023-01-15T11:12:19;271.03;;;89.07;;
75156;SDS011;63736;50.076;8.198;2023-01-15T11:14:49;241.82;;;80.95;;
75156;SDS011;63736;50.076;8.198;2023-01-15T11:17:37;263.10;;;86.40;;
75156;SDS011;63736;50.076;8.198;2023-01-15T11:20:31;262.43;;;84.47;;
75156;SDS011;63736;50.076;8.198;2023-01-15T11:23:06;257.83;;;85.25;;
75156;SDS011;63736;50.076;8.198;2023-01-15T11:25:33;268.65;;;86.43;;
75156;SDS011;63736;50.076;8.198;2023-01-15T11:28:00;336.17;;;101.80;;
75156;SDS011;63736;50.076;8.198;2023-01-15T11:30:29;336.80;;;101.68;;
75156;SDS011;63736;50.076;8.198;2023-01-15T11:32:58;464.83;;;136.80;;
75156;SDS011;63736;50.076;8.198;2023-01-15T11:35:27;538.00;;;166.48;;
75156;SDS011;63736;50.076;8.198;2023-01-15T11:38:00;186.80;;;66.45;;
75156;SDS011;63736;50.076;8.198;2023-01-15T11:40:30;173.80;;;63.30;;
75156;SDS011;63736;50.076;8.198;2023-01-15T11:42:55;163.27;;;61.75;;
75156;SDS011;63736;50.076;8.198;2023-01-15T11:45:46;168.13;;;62.73;;
75156;SDS011;63736;50.076;8.198;2023-01-15T11:48:41;166.48;;;62.75;;
75156;SDS011;63736;50.076;8.198;2023-01-15T11:51:26;197.98;;;70.13;;
75156;SDS011;63736;50.076;8.198;2023-01-15T11:53:53;179.05;;;64.88;;
75156;SDS011;63736;50.076;8.198;2023-01-15T11:56:23;136.75;;;56.90;;
75156;SDS011;63736;50.076;8.198;2023-01-15T11:59:00;126.97;;;54.20;;
75156;SDS011;63736;50.076;8.198;2023-01-15T12:01:33;118.35;;;52.50;;
75156;SDS011;63736;50.076;8.198;2023-01-15T12:04:05;103.40;;;49.20;;
75156;SDS011;63736;50.076;8.198;2023-01-15T12:06:46;100.32;;;48.80;;
75156;SDS011;63736;50.076;8.198;2023-01-15T12:09:14;94.27;;;46.77;;
75156;SDS011;63736;50.076;8.198;2023-01-15T12:14:40;60.27;;;40.07;;
75156;SDS011;63736;50.076;8.198;2023-01-15T12:17:19;47.55;;;34.90;;
75156;SDS011;63736;50.076;8.198;2023-01-15T12:26:12;152.05;;;59.15;;
75156;SDS011;63736;50.076;8.198;2023-01-15T12:28:50;255.27;;;83.07;;
75156;SDS011;63736;50.076;8.198;2023-01-15T12:31:28;180.35;;;66.15;;
75156;SDS011;63736;50.076;8.198;2023-01-15T12:34:29;46.58;;;32.17;;
75156;SDS011;63736;50.076;8.198;2023-01-15T12:37:04;90.72;;;46.20;;
75156;SDS011;63736;50.076;8.198;2023-01-15T12:39:39;134.57;;;57.15;;
75156;SDS011;63736;50.076;8.198;2023-01-15T12:42:12;146.80;;;59.30;;
75156;SDS011;63736;50.076;8.198;2023-01-15T12:45:09;127.65;;;55.60;;
75156;SDS011;63736;50.076;8.198;2023-01-15T12:47:56;132.20;;;57.05;;
75156;SDS011;63736;50.076;8.198;2023-01-15T12:53:08;148.60;;;60.35;;
75156;SDS011;63736;50.076;8.198;2023-01-15T12:55:37;146.97;;;59.13;;
75156;SDS011;63736;50.076;8.198;2023-01-15T12:58:12;146.00;;;58.42;;
75156;SDS011;63736;50.076;8.198;2023-01-15T13:00:48;149.60;;;60.28;;
75156;SDS011;63736;50.076;8.198;2023-01-15T13:03:20;123.47;;;54.85;;
75156;SDS011;63736;50.076;8.198;2023-01-15T13:06:10;122.78;;;54.05;;
75156;SDS011;63736;50.076;8.198;2023-01-15T13:08:53;105.40;;;50.43;;
75156;SDS011;63736;50.076;8.198;2023-01-15T13:11:24;101.80;;;49.20;;
75156;SDS011;63736;50.076;8.198;2023-01-15T13:13:49;93.20;;;48.33;;
75156;SDS011;63736;50.076;8.198;2023-01-15T13:16:28;82.20;;;45.45;;
75156;SDS011;63736;50.076;8.198;2023-01-15T13:21:30;76.95;;;43.85;;
75156;SDS011;63736;50.076;8.198;2023-01-15T13:32:19;146.15;;;58.20;;
75156;SDS011;63736;50.076;8.198;2023-01-15T13:37:42;128.23;;;54.83;;
75156;SDS011;63736;50.076;8.198;2023-01-15T13:40:28;125.40;;;54.20;;
75156;SDS011;63736;50.076;8.198;2023-01-15T13:42:58;128.98;;;54.75;;
75156;SDS011;63736;50.076;8.198;2023-01-15T13:45:33;134.20;;;56.05;;
75156;SDS011;63736;50.076;8.198;2023-01-15T13:48:02;134.75;;;55.90;;
75156;SDS011;63736;50.076;8.198;2023-01-15T13:50:32;133.13;;;55.85;;
75156;SDS011;63736;50.076;8.198;2023-01-15T13:53:06;129.23;;;55.33;;
75156;SDS011;63736;50.076;8.198;2023-01-15T13:55:48;137.98;;;57.58;;
75156;SDS011;63736;50.076;8.198;2023-01-15T13:58:19;138.73;;;56.60;;
75156;SDS011;63736;50.076;8.198;2023-01-15T14:00:59;136.30;;;57.03;;
75156;SDS011;63736;50.076;8.198;2023-01-15T14:04:04;138.50;;;57.08;;
75156;SDS011;63736;50.076;8.198;2023-01-15T14:06:37;139.27;;;56.83;;
75156;SDS011;63736;50.076;8.198;2023-01-15T14:14:28;126.05;;;54.70;;
75156;SDS011;63736;50.076;8.198;2023-01-15T14:17:07;139.02;;;57.30;;
75156;SDS011;63736;50.076;8.198;2023-01-15T14:19:51;137.70;;;56.93;;
75156;SDS011;63736;50.076;8.198;2023-01-15T14:25:17;154.75;;;59.55;;
75156;SDS011;63736;50.076;8.198;2023-01-15T14:28:04;144.52;;;57.53;;
75156;SDS011;63736;50.076;8.198;2023-01-15T14:30:54;154.48;;;60.50;;
75156;SDS011;63736;50.076;8.198;2023-01-15T14:33:26;142.20;;;56.93;;
75156;SDS011;63736;50.076;8.198;2023-01-15T14:36:24;137.38;;;56.58;;
75156;SDS011;63736;50.076;8.198;2023-01-15T14:38:54;141.77;;;57.90;;
75156;SDS011;63736;50.076;8.198;2023-01-15T14:41:24;149.00;;;59.08;;
75156;SDS011;63736;50.076;8.198;2023-01-15T14:44:27;155.93;;;61.60;;
75156;SDS011;63736;50.076;8.198;2023-01-15T14:46:58;147.47;;;58.47;;
75156;SDS011;63736;50.076;8.198;2023-01-15T14:49:28;143.30;;;57.55;;
75156;SDS011;63736;50.076;8.198;2023-01-15T14:51:55;138.40;;;57.35;;
75156;SDS011;63736;50.076;8.198;2023-01-15T14:54:22;135.63;;;56.10;;
75156;SDS011;63736;50.076;8.198;2023-01-15T14:56:50;136.93;;;55.92;;
75156;SDS011;63736;50.076;8.198;2023-01-15T14:59:26;151.27;;;58.83;;
75156;SDS011;63736;50.076;8.198;2023-01-15T15:02:13;168.00;;;63.10;;
75156;SDS011;63736;50.076;8.198;2023-01-15T15:04:47;25.75;;;21.17;;
75156;SDS011;63736;50.076;8.198;2023-01-15T15:07:19;26.13;;;20.73;;
75156;SDS011;63736;50.076;8.198;2023-01-15T15:15:46;27.95;;;23.13;;
75156;SDS011;63736;50.076;8.198;2023-01-15T15:18:31;33.17;;;26.08;;
75156;SDS011;63736;50.076;8.198;2023-01-15T15:21:15;25.67;;;22.42;;
75156;SDS011;63736;50.076;8.198;2023-01-15T15:23:53;31.50;;;24.75;;
75156;SDS011;63736;50.076;8.198;2023-01-15T15:31:24;21.17;;;12.75;;
75156;SDS011;63736;50.076;8.198;2023-01-15T15:33:54;19.13;;;11.48;;
75156;SDS011;63736;50.076;8.198;2023-01-15T15:36:25;29.67;;;19.33;;
75156;SDS011;63736;50.076;8.198;2023-01-15T15:39:03;23.27;;;14.47;;
75156;SDS011;63736;50.076;8.198;2023-01-15T15:41:40;38.53;;;22.05;;
75156;SDS011;63736;50.076;8.198;2023-01-15T15:44:32;25.10;;;17.98;;
75156;SDS011;63736;50.076;8.198;2023-01-15T15:47:21;26.52;;;21.02;;
75156;SDS011;63736;50.076;8.198;2023-01-15T15:50:17;33.30;;;25.83;;
75156;SDS011;63736;50.076;8.198;2023-01-15T15:52:47;29.67;;;21.90;;
75156;SDS011;63736;50.076;8.198;2023-01-15T15:55:14;22.17;;;17.98;;
75156;SDS011;63736;50.076;8.198;2023-01-15T15:57:40;21.42;;;17.60;;
75156;SDS011;63736;50.076;8.198;2023-01-15T16:00:09;18.73;;;12.33;;
75156;SDS011;63736;50.076;8.198;2023-01-15T16:02:42;29.15;;;19.83;;
75156;SDS011;63736;50.076;8.198;2023-01-15T16:07:48;185.13;;;66.30;;
75156;SDS011;63736;50.076;8.198;2023-01-15T16:12:57;181.02;;;66.15;;
75156;SDS011;63736;50.076;8.198;2023-01-15T16:15:26;176.02;;;64.20;;
75156;SDS011;63736;50.076;8.198;2023-01-15T16:17:57;178.10;;;66.53;;
75156;SDS011;63736;50.076;8.198;2023-01-15T16:20:25;165.40;;;63.30;;
75156;SDS011;63736;50.076;8.198;2023-01-15T16:22:58;163.85;;;62.47;;
75156;SDS011;63736;50.076;8.198;2023-01-15T16:25:28;143.93;;;58.80;;
75156;SDS011;63736;50.076;8.198;2023-01-15T16:27:58;129.23;;;54.70;;
75156;SDS011;63736;50.076;8.198;2023-01-15T16:30:24;124.13;;;54.50;;
75156;SDS011;63736;50.076;8.198;2023-01-15T16:32:50;107.13;;;50.28;;
75156;SDS011;63736;50.076;8.198;2023-01-15T16:35:18;103.18;;;49.55;;
75156;SDS011;63736;50.076;8.198;2023-01-15T16:37:54;89.87;;;45.63;;
75156;SDS011;63736;50.076;8.198;2023-01-15T16:40:43;65.50;;;40.13;;
75156;SDS011;63736;50.076;8.198;2023-01-15T16:43:18;61.10;;;39.83;;
75156;SDS011;63736;50.076;8.198;2023-01-15T16:46:06;59.35;;;38.15;;
75156;SDS011;63736;50.076;8.198;2023-01-15T16:48:40;63.50;;;39.35;;
75156;SDS011;63736;50.076;8.198;2023-01-15T16:51:27;63.20;;;39.40;;
75156;SDS011;63736;50.076;8.198;2023-01-15T16:54:00;61.85;;;38.78;;
75156;SDS011;63736;50.076;8.198;2023-01-15T16:58:59;54.47;;;36.47;;
75156;SDS011;63736;50.076;8.198;2023-01-15T17:01:31;53.87;;;36.27;;
75156;SDS011;63736;50.076;8.198;2023-01-15T17:04:00;54.95;;;37.97;;
75156;SDS011;63736;50.076;8.198;2023-01-15T17:06:26;55.53;;;37.33;;
75156;SDS011;63736;50.076;8.198;2023-01-15T17:08:53;54.60;;;36.23;;
75156;SDS011;63736;50.076;8.198;2023-01-15T17:11:21;52.05;;;35.63;;
75156;SDS011;63736;50.076;8.198;2023-01-15T17:13:49;50.08;;;35.47;;
75156;SDS011;63736;50.076;8.198;2023-01-15T17:16:19;46.00;;;33.22;;
75156;SDS011;63736;50.076;8.198;2023-01-15T17:18:46;47.80;;;34.72;;
75156;SDS011;63736;50.076;8.198;2023-01-15T17:21:17;42.13;;;32.07;;
75156;SDS011;63736;50.076;8.198;2023-01-15T17:23:46;35.70;;;27.67;;